Time;durP1;ratioP1;P1;durP2;ratioP2;P2;SDS_P1;SDS_P2;PMS_P1;PMS_P2;Temp;Humidity;BMP_temperature;BMP_pressure;BME280_temperature;BME280_humidity;BME280_pressure;Samples;Min_cycle;Max_cycle;Signal;HPM_P1;HPM_P2
2023/03/07 00:00:42;;;;;;;36.03;27.13;;;0.10;99.90;;;;;;5052234;28;20025;-67
2023/03/07 00:03:10;;;;;;;33.67;24.90;;;0.20;99.90;;;;;;5051872;28;20021;-67
2023/03/07 00:05:38;;;;;;;35.75;26.00;;;0.00;99.90;;;;;;5051465;28;20036;-66
2023/03/07 00:08:03;;;;;;;37.17;28.05;;;-0.20;99.90;;;;;;5052059;28;20563;-66
2023/03/07 00:10:29;;;;;;;32.13;25.10;;;-0.10;99.90;;;;;;5052242;28;20025;-67
2023/03/07 00:12:55;;;;;;;36.42;28.65;;;-0.20;99.90;;;;;;5051745;28;20043;-66
2023/03/07 00:15:21;;;;;;;35.40;27.08;;;-0.40;99.90;;;;;;5052078;28;20048;-66
2023/03/07 00:17:47;;;;;;;48.20;39.72;;;-0.10;99.90;;;;;;5051846;28;20162;-67
2023/03/07 00:20:14;;;;;;;25.65;20.75;;;0.10;99.90;;;;;;5052370;28;20032;-66
2023/03/07 00:22:40;;;;;;;30.08;21.00;;;-0.10;99.90;;;;;;5051854;28;20029;-66
2023/03/07 00:25:06;;;;;;;27.85;20.23;;;-0.10;99.90;;;;;;5051999;28;20151;-66
2023/03/07 00:27:33;;;;;;;48.30;36.65;;;0.00;99.90;;;;;;5052017;28;20021;-66
2023/03/07 00:29:59;;;;;;;37.13;30.13;;;-0.20;99.90;;;;;;5051979;28;20025;-66
2023/03/07 00:32:26;;;;;;;36.95;30.10;;;-0.20;99.90;;;;;;5051491;28;20028;-67
2023/03/07 00:34:53;;;;;;;32.78;26.10;;;-0.30;99.90;;;;;;5052121;28;20390;-67
2023/03/07 00:37:18;;;;;;;33.58;27.98;;;-0.40;99.90;;;;;;5051893;28;20017;-67
2023/03/07 00:39:44;;;;;;;33.78;26.95;;;-0.50;99.90;;;;;;5052147;28;20028;-67
2023/03/07 00:42:10;;;;;;;28.13;23.23;;;-0.40;99.90;;;;;;5051777;28;20470;-67
2023/03/07 00:44:35;;;;;;;33.75;25.42;;;-0.40;99.90;;;;;;5051611;28;20029;-67
2023/03/07 00:47:01;;;;;;;31.85;25.02;;;-0.40;99.90;;;;;;5051753;28;20041;-67
2023/03/07 00:49:27;;;;;;;33.80;25.73;;;-0.50;99.90;;;;;;5051325;28;20032;-67
2023/03/07 00:51:53;;;;;;;30.67;24.52;;;-0.70;99.90;;;;;;5052189;28;20390;-67
2023/03/07 00:54:19;;;;;;;32.22;24.85;;;-0.70;99.90;;;;;;5051741;28;20025;-67
2023/03/07 00:56:44;;;;;;;33.97;26.20;;;-0.80;99.90;;;;;;5051781;28;20108;-67
2023/03/07 00:59:10;;;;;;;32.83;24.75;;;-0.70;99.90;;;;;;5051766;28;20025;-67
2023/03/07 01:01:36;;;;;;;27.67;20.38;;;-0.70;99.90;;;;;;5051384;28;20024;-67
2023/03/07 01:04:03;;;;;;;25.83;19.73;;;-0.50;99.90;;;;;;5051549;28;20029;-66
2023/03/07 01:06:31;;;;;;;36.75;24.23;;;-0.50;99.90;;;;;;5051772;28;20442;-67
2023/03/07 01:08:59;;;;;;;43.80;27.75;;;-0.70;99.90;;;;;;5051954;28;20044;-67
2023/03/07 01:11:27;;;;;;;35.88;23.63;;;-0.80;99.90;;;;;;5051546;28;20057;-67
2023/03/07 01:13:56;;;;;;;25.52;18.60;;;-0.70;99.90;;;;;;5051272;28;20053;-67
2023/03/07 01:16:25;;;;;;;23.88;17.25;;;-0.50;99.90;;;;;;5053351;28;20021;-67
2023/03/07 01:18:53;;;;;;;20.38;15.32;;;-0.40;99.90;;;;;;5055247;28;20029;-67
2023/03/07 01:21:25;;;;;;;22.27;16.15;;;-0.60;99.90;;;;;;5055290;28;20071;-67
2023/03/07 01:23:52;;;;;;;21.85;16.17;;;-0.70;99.90;;;;;;5055394;28;20040;-67
2023/03/07 01:26:23;;;;;;;20.02;15.52;;;-0.50;99.90;;;;;;5055028;28;20444;-66
2023/03/07 01:28:53;;;;;;;21.98;16.58;;;-0.50;99.90;;;;;;5055045;28;20024;-67
2023/03/07 01:31:19;;;;;;;22.55;14.93;;;-0.40;99.90;;;;;;5054701;28;20401;-67
2023/03/07 01:33:47;;;;;;;21.00;15.07;;;-0.60;99.90;;;;;;5055299;28;20171;-67
2023/03/07 01:36:17;;;;;;;21.88;15.95;;;-0.60;99.90;;;;;;5055048;28;20032;-67
2023/03/07 01:38:43;;;;;;;23.67;16.00;;;-0.40;99.90;;;;;;5054988;28;20025;-67
2023/03/07 01:41:08;;;;;;;22.58;16.05;;;-0.50;99.90;;;;;;5054931;28;20029;-67
2023/03/07 01:43:34;;;;;;;26.13;18.13;;;-0.50;99.90;;;;;;5054761;28;20028;-67
2023/03/07 01:46:25;;;;;;;29.55;20.45;;;-0.50;99.90;;;;;;5054393;28;20082;-67
2023/03/07 01:48:59;;;;;;;27.90;20.30;;;-0.60;99.90;;;;;;5051833;28;20033;-68
2023/03/07 01:51:26;;;;;;;24.15;17.48;;;-0.70;99.90;;;;;;5054731;28;20503;-67
2023/03/07 01:53:54;;;;;;;30.83;21.42;;;-0.80;99.90;;;;;;5054686;28;20398;-68
2023/03/07 01:56:21;;;;;;;27.23;19.55;;;-0.70;99.90;;;;;;5054487;28;20109;-67
2023/03/07 01:58:47;;;;;;;53.10;34.92;;;-0.60;99.90;;;;;;5054554;28;20079;-67
2023/03/07 02:01:16;;;;;;;20.95;15.45;;;-0.60;99.90;;;;;;5054355;28;20405;-67
2023/03/07 02:03:54;;;;;;;18.23;14.20;;;-0.70;99.90;;;;;;5054479;28;20103;-67
2023/03/07 02:06:20;;;;;;;24.05;16.40;;;-0.80;99.90;;;;;;5054374;28;20029;-67
2023/03/07 02:08:48;;;;;;;29.83;20.40;;;-0.80;99.90;;;;;;5054808;28;20025;-67
2023/03/07 02:11:15;;;;;;;32.17;21.33;;;-0.90;99.90;;;;;;5054188;28;20104;-67
2023/03/07 02:13:41;;;;;;;21.30;15.05;;;-0.90;99.90;;;;;;5053902;28;20060;-68
2023/03/07 02:16:07;;;;;;;25.50;17.95;;;-0.90;99.90;;;;;;5054419;28;20028;-68
2023/03/07 02:18:39;;;;;;;19.40;13.95;;;-0.80;99.90;;;;;;5054168;28;20032;-67
2023/03/07 02:21:23;;;;;;;19.13;14.57;;;-0.70;99.90;;;;;;5054139;28;20029;-68
2023/03/07 02:24:03;;;;;;;19.65;14.70;;;-0.80;99.90;;;;;;5054072;28;20032;-68
2023/03/07 02:26:58;;;;;;;19.65;15.35;;;-0.70;99.90;;;;;;5054252;28;20083;-68
2023/03/07 02:29:23;;;;;;;100.53;43.50;;;-0.70;99.90;;;;;;5052226;28;20060;-68
2023/03/07 02:31:49;;;;;;;20.55;14.90;;;-0.70;99.90;;;;;;5053811;28;20493;-68
2023/03/07 02:34:27;;;;;;;235.82;105.93;;;-0.70;99.90;;;;;;5053818;28;20367;-68
2023/03/07 02:37:00;;;;;;;185.90;87.55;;;-0.60;99.90;;;;;;5053866;28;20047;-67
2023/03/07 02:39:29;;;;;;;25.75;17.15;;;-0.70;99.90;;;;;;5053862;28;20402;-67
2023/03/07 02:41:58;;;;;;;20.52;15.30;;;-0.70;99.90;;;;;;5054084;28;20124;-67
2023/03/07 02:44:23;;;;;;;18.38;13.57;;;-0.60;99.90;;;;;;5053532;28;20116;-67
2023/03/07 02:46:49;;;;;;;18.48;14.80;;;-0.60;99.90;;;;;;5053737;28;20112;-67
2023/03/07 02:49:15;;;;;;;25.75;18.25;;;-0.40;99.90;;;;;;5053982;28;20504;-67
2023/03/07 02:51:41;;;;;;;18.70;13.68;;;-0.30;99.90;;;;;;5053431;28;20047;-67
2023/03/07 02:54:07;;;;;;;25.45;17.30;;;-0.30;99.90;;;;;;5053475;28;20495;-67
2023/03/07 02:56:33;;;;;;;18.83;14.38;;;-0.20;99.90;;;;;;5053280;28;20402;-67
2023/03/07 02:58:59;;;;;;;18.80;14.07;;;-0.30;99.90;;;;;;5053361;28;20109;-67
2023/03/07 03:01:24;;;;;;;20.98;14.10;;;-0.20;99.90;;;;;;5053670;28;20112;-67
2023/03/07 03:03:50;;;;;;;24.83;16.92;;;0.00;99.90;;;;;;5053455;28;20029;-67
2023/03/07 03:06:16;;;;;;;20.52;15.23;;;-0.10;99.90;;;;;;5053352;28;20413;-67
2023/03/07 03:08:41;;;;;;;19.85;14.10;;;-0.10;99.90;;;;;;5053250;28;20398;-67
2023/03/07 03:11:07;;;;;;;19.90;15.30;;;-0.30;99.90;;;;;;5053307;28;20104;-67
2023/03/07 03:13:33;;;;;;;26.27;18.73;;;-0.20;99.90;;;;;;5052772;28;20044;-67
2023/03/07 03:15:58;;;;;;;24.98;18.38;;;0.10;99.90;;;;;;5053238;28;20033;-67
2023/03/07 03:18:27;;;;;;;21.92;15.85;;;0.10;99.90;;;;;;5053434;28;20500;-67
2023/03/07 03:20:53;;;;;;;22.48;17.25;;;0.20;99.90;;;;;;5052858;28;20024;-67
2023/03/07 03:23:18;;;;;;;23.33;17.08;;;0.40;99.90;;;;;;5053284;28;20108;-67
2023/03/07 03:25:44;;;;;;;23.90;18.85;;;0.40;99.90;;;;;;5052915;28;20021;-67
2023/03/07 03:28:12;;;;;;;24.23;17.90;;;0.80;99.90;;;;;;5052721;28;20072;-67
2023/03/07 03:30:39;;;;;;;24.67;18.20;;;0.90;99.90;;;;;;5052894;28;20021;-67
2023/03/07 03:33:05;;;;;;;22.88;18.02;;;1.30;99.90;;;;;;5052762;28;20032;-67
2023/03/07 03:35:32;;;;;;;21.58;17.00;;;1.40;99.90;;;;;;5053239;28;20087;-67
2023/03/07 03:37:58;;;;;;;22.58;17.75;;;1.50;99.90;;;;;;5052603;28;20032;-67
2023/03/07 03:40:23;;;;;;;23.30;17.80;;;1.90;99.90;;;;;;5051642;28;20036;-67
2023/03/07 03:42:49;;;;;;;23.00;17.20;;;1.90;99.90;;;;;;5052651;28;20032;-67
2023/03/07 03:45:15;;;;;;;24.58;18.80;;;2.00;99.90;;;;;;5052806;28;20079;-67
2023/03/07 03:47:41;;;;;;;24.20;17.90;;;1.90;99.90;;;;;;5052540;28;20025;-67
2023/03/07 03:50:07;;;;;;;23.20;17.13;;;1.90;99.90;;;;;;5052414;28;20033;-67
2023/03/07 03:52:34;;;;;;;25.10;19.60;;;1.80;99.90;;;;;;5052867;28;20470;-67
2023/03/07 03:55:00;;;;;;;22.92;16.70;;;1.70;99.90;;;;;;5051968;28;20036;-67
2023/03/07 03:57:26;;;;;;;22.40;17.20;;;1.80;99.90;;;;;;5050974;28;20021;-67
2023/03/07 03:59:52;;;;;;;28.80;20.67;;;2.00;99.90;;;;;;5052552;28;20379;-67
2023/03/07 04:02:17;;;;;;;32.95;24.63;;;2.20;99.90;;;;;;5051203;28;20032;-67
2023/03/07 04:04:43;;;;;;;26.90;19.67;;;2.20;99.90;;;;;;5052203;28;20485;-67
2023/03/07 04:07:09;;;;;;;23.95;17.02;;;2.10;99.90;;;;;;5052361;28;20025;-67
2023/03/07 04:09:34;;;;;;;22.88;17.20;;;1.90;99.90;;;;;;5052502;28;20037;-67
2023/03/07 04:12:00;;;;;;;19.10;14.45;;;2.10;99.90;;;;;;5051991;28;20025;-68
2023/03/07 04:14:26;;;;;;;18.58;14.23;;;2.10;99.90;;;;;;5051852;28;20085;-67
2023/03/07 04:16:51;;;;;;;17.92;13.98;;;2.00;99.90;;;;;;5052128;28;20555;-67
2023/03/07 04:19:17;;;;;;;20.63;14.70;;;2.10;99.90;;;;;;5052129;28;20048;-67
2023/03/07 04:21:43;;;;;;;18.52;14.15;;;2.20;99.90;;;;;;5052401;28;20057;-67
2023/03/07 04:24:09;;;;;;;17.63;13.73;;;2.30;99.90;;;;;;5051585;28;20055;-67
2023/03/07 04:26:35;;;;;;;21.13;14.30;;;2.40;99.90;;;;;;5052145;28;20021;-68
2023/03/07 04:29:03;;;;;;;19.63;14.75;;;2.30;99.90;;;;;;5052139;28;20115;-67
2023/03/07 04:31:29;;;;;;;20.33;14.05;;;2.20;99.90;;;;;;5051899;28;20066;-67
2023/03/07 04:33:55;;;;;;;20.27;14.32;;;2.30;99.90;;;;;;5052035;28;20072;-67
2023/03/07 04:36:23;;;;;;;20.20;13.88;;;2.30;99.90;;;;;;5052009;28;20028;-68
2023/03/07 04:38:49;;;;;;;20.20;14.10;;;2.30;99.90;;;;;;5051592;28;20025;-68
2023/03/07 04:41:20;;;;;;;17.15;14.38;;;2.30;99.90;;;;;;5052203;28;20037;-67
2023/03/07 04:43:46;;;;;;;16.33;14.15;;;2.40;99.90;;;;;;5051710;28;20033;-68
2023/03/07 04:46:14;;;;;;;18.58;14.30;;;2.40;99.90;;;;;;5051803;28;20024;-68
2023/03/07 04:48:39;;;;;;;20.10;14.90;;;2.20;99.90;;;;;;5051599;28;20429;-67
2023/03/07 04:51:05;;;;;;;16.95;12.93;;;2.40;99.90;;;;;;5052108;28;20064;-67
2023/03/07 04:53:31;;;;;;;17.20;13.30;;;2.30;99.90;;;;;;5055630;28;20108;-67
2023/03/07 04:55:59;;;;;;;19.50;14.75;;;2.20;99.90;;;;;;5055473;28;20100;-68
2023/03/07 04:58:28;;;;;;;19.70;13.02;;;2.30;99.90;;;;;;5055835;28;20101;-68
2023/03/07 05:00:57;;;;;;;18.02;13.90;;;2.30;99.90;;;;;;5056029;28;20043;-67
2023/03/07 05:03:24;;;;;;;21.40;14.50;;;2.30;99.90;;;;;;5055549;28;20119;-67
2023/03/07 05:05:50;;;;;;;16.17;14.27;;;2.30;99.90;;;;;;5055612;28;20428;-67
2023/03/07 05:08:16;;;;;;;18.70;13.73;;;2.40;99.90;;;;;;5055231;28;20029;-67
2023/03/07 05:10:42;;;;;;;16.65;13.70;;;2.40;99.90;;;;;;5055360;28;20086;-67
2023/03/07 05:13:09;;;;;;;17.63;14.15;;;2.40;99.90;;;;;;5055541;28;20047;-67
2023/03/07 05:15:35;;;;;;;16.10;13.30;;;2.40;99.90;;;;;;5055535;28;20078;-67
2023/03/07 05:18:00;;;;;;;17.40;13.90;;;2.30;99.90;;;;;;5055468;28;20029;-67
2023/03/07 05:20:26;;;;;;;16.92;12.90;;;2.50;99.90;;;;;;5054178;28;20028;-67
2023/03/07 05:22:52;;;;;;;19.08;14.10;;;2.50;99.90;;;;;;5054981;28;20551;-67
2023/03/07 05:25:18;;;;;;;24.50;17.90;;;2.50;99.90;;;;;;5055105;28;20057;-67
2023/03/07 05:27:43;;;;;;;24.15;16.85;;;2.50;99.90;;;;;;5055193;28;20111;-67
2023/03/07 05:30:10;;;;;;;18.73;15.45;;;2.40;99.90;;;;;;5055147;28;20074;-67
2023/03/07 05:32:36;;;;;;;32.38;24.48;;;2.40;99.90;;;;;;5055152;28;20112;-67
2023/03/07 05:35:02;;;;;;;23.88;19.73;;;2.40;99.90;;;;;;5055235;28;20113;-67
2023/03/07 05:37:28;;;;;;;37.65;28.08;;;2.50;99.90;;;;;;5054900;28;20393;-67
2023/03/07 05:39:54;;;;;;;37.70;27.67;;;2.50;99.90;;;;;;5054962;28;20032;-67
2023/03/07 05:42:19;;;;;;;24.63;21.52;;;2.60;99.90;;;;;;5054902;28;20040;-67
2023/03/07 05:44:45;;;;;;;17.65;15.80;;;2.70;99.90;;;;;;5054979;28;20029;-67
2023/03/07 05:47:11;;;;;;;20.10;18.10;;;2.80;99.90;;;;;;5054926;28;20079;-67
2023/03/07 05:49:36;;;;;;;23.98;18.35;;;2.90;99.90;;;;;;5054615;28;20486;-67
2023/03/07 05:52:02;;;;;;;22.58;18.38;;;2.90;99.90;;;;;;5054268;28;20020;-67
2023/03/07 05:54:28;;;;;;;27.20;20.73;;;2.90;99.90;;;;;;5054799;28;20037;-67
2023/03/07 05:56:53;;;;;;;18.48;12.82;;;2.90;99.90;;;;;;5054621;28;20018;-67
2023/03/07 05:59:19;;;;;;;17.70;15.90;;;3.00;99.90;;;;;;5054677;28;20029;-67
2023/03/07 06:01:45;;;;;;;22.92;17.77;;;3.10;99.90;;;;;;5054031;28;20066;-67
2023/03/07 06:04:11;;;;;;;21.83;18.00;;;3.10;99.90;;;;;;5054020;28;20024;-67
2023/03/07 06:06:36;;;;;;;19.75;14.60;;;3.10;99.90;;;;;;5054625;28;20028;-67
2023/03/07 06:09:04;;;;;;;20.20;15.60;;;3.10;99.90;;;;;;5054326;28;20036;-67
2023/03/07 06:11:30;;;;;;;19.23;16.38;;;3.20;99.90;;;;;;5054312;28;20052;-67
2023/03/07 06:13:56;;;;;;;16.73;14.95;;;3.20;99.90;;;;;;5054174;28;20040;-67
2023/03/07 06:16:22;;;;;;;22.45;20.08;;;3.20;99.90;;;;;;5054292;28;20103;-68
2023/03/07 06:18:48;;;;;;;15.80;14.20;;;3.20;99.90;;;;;;5054215;28;20049;-68
2023/03/07 06:21:16;;;;;;;16.05;14.35;;;3.20;99.90;;;;;;5053950;28;20482;-67
2023/03/07 06:23:42;;;;;;;15.57;13.82;;;3.30;99.90;;;;;;5054164;28;20059;-68
2023/03/07 06:26:09;;;;;;;17.33;15.52;;;3.30;99.90;;;;;;5054391;28;20020;-67
2023/03/07 06:28:35;;;;;;;17.13;14.05;;;3.20;99.90;;;;;;5054130;28;20094;-67
2023/03/07 06:31:10;;;;;;;15.48;13.10;;;3.30;99.90;;;;;;5053794;28;20478;-65
2023/03/07 06:33:36;;;;;;;16.85;14.02;;;3.40;99.90;;;;;;5054235;28;20083;-66
2023/03/07 06:36:12;;;;;;;15.20;13.52;;;3.40;99.90;;;;;;5053577;28;20025;-68
2023/03/07 06:38:38;;;;;;;16.27;14.25;;;3.40;99.90;;;;;;5053385;28;20079;-66
2023/03/07 06:41:05;;;;;;;15.45;13.60;;;3.50;99.90;;;;;;5053329;28;20882;-68
2023/03/07 06:43:31;;;;;;;16.35;14.15;;;3.50;99.90;;;;;;5053202;28;20061;-68
2023/03/07 06:45:57;;;;;;;17.30;14.43;;;3.70;99.90;;;;;;5053750;28;20067;-68
2023/03/07 06:48:23;;;;;;;15.57;13.82;;;3.70;99.90;;;;;;5052834;28;20386;-68
2023/03/07 06:50:48;;;;;;;16.45;13.60;;;3.70;99.90;;;;;;5052916;28;20058;-68
2023/03/07 06:53:14;;;;;;;18.88;14.63;;;3.80;99.90;;;;;;5052546;28;20478;-67
2023/03/07 06:55:40;;;;;;;17.80;14.02;;;4.00;99.90;;;;;;5053747;28;20064;-67
2023/03/07 06:58:05;;;;;;;19.23;15.70;;;3.90;99.90;;;;;;5052329;28;20013;-68
2023/03/07 07:00:31;;;;;;;21.50;16.63;;;3.80;99.90;;;;;;5053038;28;20466;-67
2023/03/07 07:02:57;;;;;;;16.98;15.07;;;3.80;99.90;;;;;;5052277;28;20033;-67
2023/03/07 07:05:22;;;;;;;21.00;16.20;;;3.80;99.90;;;;;;5052745;28;20493;-68
2023/03/07 07:07:49;;;;;;;16.73;15.02;;;3.80;99.90;;;;;;5053328;28;20025;-67
2023/03/07 07:10:15;;;;;;;20.13;16.17;;;3.80;99.90;;;;;;5053581;28;20037;-67
2023/03/07 07:12:40;;;;;;;19.55;15.88;;;3.80;99.90;;;;;;5052922;28;20025;-67
2023/03/07 07:15:07;;;;;;;18.80;15.95;;;3.90;99.90;;;;;;5053038;28;20059;-67
2023/03/07 07:17:37;;;;;;;19.50;16.25;;;4.00;99.90;;;;;;5052667;28;20100;-67
2023/03/07 07:20:05;;;;;;;21.35;16.92;;;3.90;99.90;;;;;;5053540;28;20021;-67
2023/03/07 07:22:31;;;;;;;23.27;17.60;;;3.90;99.90;;;;;;5052916;28;20041;-67
2023/03/07 07:24:57;;;;;;;22.15;18.15;;;3.90;99.90;;;;;;5052877;28;20036;-67
2023/03/07 07:27:22;;;;;;;21.65;18.45;;;4.00;99.90;;;;;;5052849;28;20025;-67
2023/03/07 07:29:48;;;;;;;22.30;18.33;;;4.00;99.90;;;;;;5052856;28;20033;-67
2023/03/07 07:32:14;;;;;;;22.90;18.67;;;4.00;99.90;;;;;;5052666;28;20052;-67
2023/03/07 07:34:40;;;;;;;20.02;17.90;;;4.00;99.90;;;;;;5052587;28;20033;-67
2023/03/07 07:37:06;;;;;;;23.50;18.35;;;4.10;99.90;;;;;;5053086;28;20036;-67
2023/03/07 07:39:31;;;;;;;24.42;21.05;;;4.10;99.90;;;;;;5052520;28;20029;-68
2023/03/07 07:41:57;;;;;;;20.58;18.38;;;4.10;99.90;;;;;;5052584;28;20079;-67
2023/03/07 07:44:23;;;;;;;24.25;19.00;;;4.10;99.90;;;;;;5052398;28;20025;-68
2023/03/07 07:46:49;;;;;;;23.30;19.00;;;4.20;99.90;;;;;;5052231;28;20594;-67
2023/03/07 07:49:15;;;;;;;22.67;19.52;;;4.20;99.90;;;;;;5052447;28;20025;-67
2023/03/07 07:51:40;;;;;;;24.35;19.83;;;4.20;99.90;;;;;;5052610;28;20039;-67
2023/03/07 07:54:08;;;;;;;27.50;20.70;;;4.20;99.90;;;;;;5052329;28;20032;-67
2023/03/07 07:56:34;;;;;;;24.02;20.17;;;4.20;99.90;;;;;;5052499;28;20028;-68
2023/03/07 07:58:59;;;;;;;25.35;21.45;;;4.30;99.90;;;;;;5052439;28;20359;-68
2023/03/07 08:01:25;;;;;;;25.80;20.33;;;4.40;99.90;;;;;;5051896;28;20117;-68
2023/03/07 08:03:51;;;;;;;24.67;21.38;;;4.30;99.90;;;;;;5052192;28;20025;-68
2023/03/07 08:06:18;;;;;;;28.42;23.25;;;4.30;99.90;;;;;;5052587;28;20555;-68
2023/03/07 08:08:44;;;;;;;26.75;22.75;;;4.40;99.90;;;;;;5052167;28;20029;-68
2023/03/07 08:11:10;;;;;;;27.67;22.50;;;4.20;99.90;;;;;;5052184;28;20033;-68
2023/03/07 08:13:35;;;;;;;25.17;22.30;;;4.30;99.90;;;;;;5051916;28;20469;-68
2023/03/07 08:16:08;;;;;;;26.83;22.98;;;4.20;99.90;;;;;;5052154;28;20033;-68
2023/03/07 08:18:34;;;;;;;25.98;22.75;;;4.20;99.90;;;;;;5052226;28;20013;-68
2023/03/07 08:21:00;;;;;;;30.00;23.48;;;4.20;99.90;;;;;;5051997;28;20037;-68
2023/03/07 08:23:25;;;;;;;32.20;23.90;;;4.20;99.90;;;;;;5051934;28;20446;-68
2023/03/07 08:25:51;;;;;;;26.40;23.60;;;4.10;99.90;;;;;;5051581;28;20074;-68
2023/03/07 08:28:17;;;;;;;32.40;23.92;;;4.10;99.90;;;;;;5051846;28;20493;-68
2023/03/07 08:30:42;;;;;;;29.67;24.73;;;4.00;99.90;;;;;;5052030;28;20098;-68
2023/03/07 08:33:08;;;;;;;29.15;24.67;;;4.00;99.90;;;;;;5051979;28;20021;-67
2023/03/07 08:35:34;;;;;;;28.38;25.00;;;4.10;99.90;;;;;;5052075;28;20056;-67
2023/03/07 08:38:00;;;;;;;29.50;25.65;;;4.10;99.90;;;;;;5051940;28;20390;-67
2023/03/07 08:40:27;;;;;;;32.17;27.23;;;4.20;99.90;;;;;;5052081;28;20036;-67
2023/03/07 08:42:54;;;;;;;31.50;27.45;;;4.10;99.90;;;;;;5051787;28;20013;-68
2023/03/07 08:45:21;;;;;;;36.08;28.63;;;4.10;99.90;;;;;;5051549;28;20104;-67
2023/03/07 08:47:47;;;;;;;34.55;28.58;;;4.10;99.90;;;;;;5052035;28;20033;-67
2023/03/07 08:50:12;;;;;;;32.92;27.73;;;3.90;99.90;;;;;;5051719;28;20101;-67
2023/03/07 08:52:38;;;;;;;30.65;27.02;;;4.10;99.90;;;;;;5051596;28;20466;-67
2023/03/07 08:55:04;;;;;;;32.30;26.73;;;4.20;99.90;;;;;;5051837;28;20037;-67
2023/03/07 08:57:30;;;;;;;33.53;29.17;;;4.10;99.90;;;;;;5051737;28;20509;-67
2023/03/07 08:59:56;;;;;;;31.88;28.27;;;4.10;99.90;;;;;;5051818;28;20061;-67
2023/03/07 09:02:21;;;;;;;35.17;28.92;;;4.10;99.90;;;;;;5051570;28;20029;-67
2023/03/07 09:04:47;;;;;;;33.75;28.95;;;4.10;99.90;;;;;;5051518;28;20064;-67
2023/03/07 09:07:13;;;;;;;40.45;32.78;;;4.20;99.90;;;;;;5051771;28;20450;-67
2023/03/07 09:09:38;;;;;;;41.10;35.83;;;4.10;99.90;;;;;;5051687;28;20021;-67
2023/03/07 09:12:04;;;;;;;44.25;35.80;;;4.20;99.90;;;;;;5051895;28;20029;-68
2023/03/07 09:14:30;;;;;;;34.35;30.63;;;4.30;99.90;;;;;;5051022;28;20572;-67
2023/03/07 09:16:55;;;;;;;35.60;30.25;;;4.00;99.90;;;;;;5051378;28;20075;-67
2023/03/07 09:19:22;;;;;;;35.30;29.73;;;4.30;99.90;;;;;;5051484;28;20044;-67
2023/03/07 09:21:48;;;;;;;34.92;29.08;;;4.40;99.90;;;;;;5051780;28;20036;-67
2023/03/07 09:24:14;;;;;;;35.20;31.17;;;4.30;99.90;;;;;;5050198;28;20444;-67
2023/03/07 09:26:40;;;;;;;40.03;31.35;;;4.30;99.90;;;;;;5051358;28;20048;-67
2023/03/07 09:29:05;;;;;;;38.08;31.33;;;4.20;99.90;;;;;;5051118;28;20086;-67
2023/03/07 09:31:32;;;;;;;37.50;32.05;;;4.30;99.90;;;;;;5051234;28;20048;-67
2023/03/07 09:33:57;;;;;;;35.83;29.60;;;4.20;99.90;;;;;;5051686;28;20037;-67
2023/03/07 09:36:23;;;;;;;37.22;31.15;;;4.40;99.90;;;;;;5051399;28;20029;-67
2023/03/07 09:38:49;;;;;;;34.33;29.85;;;4.40;99.90;;;;;;5053952;28;20390;-67
2023/03/07 09:41:32;;;;;;;34.78;29.98;;;4.30;99.90;;;;;;5054874;28;20078;-67
2023/03/07 09:44:03;;;;;;;35.53;31.00;;;4.10;99.90;;;;;;5054839;28;20075;-67
2023/03/07 09:46:38;;;;;;;34.90;30.48;;;4.20;99.90;;;;;;5054997;28;20033;-67
2023/03/07 09:49:24;;;;;;;35.40;30.15;;;4.10;99.90;;;;;;5054649;28;20047;-67
2023/03/07 09:51:52;;;;;;;34.08;30.30;;;4.30;99.90;;;;;;5054503;28;20028;-67
2023/03/07 09:54:21;;;;;;;33.47;29.08;;;4.30;99.90;;;;;;5055021;28;20090;-67
2023/03/07 09:56:57;;;;;;;36.63;31.98;;;4.20;99.90;;;;;;5054388;28;20029;-67
2023/03/07 09:59:33;;;;;;;39.47;32.58;;;4.20;99.90;;;;;;5054487;28;20045;-67
2023/03/07 10:02:33;;;;;;;35.03;30.88;;;4.50;99.90;;;;;;5054654;28;20025;-67
2023/03/07 10:05:26;;;;;;;39.47;33.60;;;4.40;99.90;;;;;;5054375;28;20024;-67
2023/03/07 10:07:53;;;;;;;48.60;40.40;;;4.30;99.90;;;;;;5054556;28;20036;-67
2023/03/07 10:10:40;;;;;;;39.85;35.45;;;4.30;99.90;;;;;;5054176;28;20457;-67
2023/03/07 10:13:31;;;;;;;43.17;38.47;;;4.40;99.90;;;;;;5053785;28;20028;-67
2023/03/07 10:16:02;;;;;;;40.38;35.95;;;4.40;99.90;;;;;;5054149;28;20044;-67
2023/03/07 10:18:58;;;;;;;44.88;39.95;;;4.50;99.90;;;;;;5054193;28;20025;-65
2023/03/07 10:21:44;;;;;;;47.53;42.22;;;4.50;99.90;;;;;;5053020;28;20493;-68
2023/03/07 10:24:22;;;;;;;50.28;41.78;;;4.40;99.90;;;;;;5053445;28;20033;-67
2023/03/07 10:27:05;;;;;;;54.53;44.47;;;4.50;99.90;;;;;;5053416;28;20025;-68
2023/03/07 10:29:52;;;;;;;85.82;58.60;;;4.40;99.90;;;;;;5053301;28;20028;-67
2023/03/07 10:32:38;;;;;;;74.25;52.25;;;4.30;99.90;;;;;;5054067;28;20036;-67
2023/03/07 10:35:10;;;;;;;67.70;48.60;;;4.30;99.90;;;;;;5054052;28;20075;-67
2023/03/07 10:38:10;;;;;;;64.60;47.63;;;4.40;99.90;;;;;;5053593;28;20036;-66
2023/03/07 10:41:17;;;;;;;48.50;39.88;;;4.40;99.90;;;;;;5030864;28;20033;-66
2023/03/07 10:43:44;;;;;;;54.63;42.88;;;4.40;99.90;;;;;;5029232;28;20045;-68
2023/03/07 10:46:14;;;;;;;44.60;37.35;;;4.50;99.90;;;;;;5050045;28;20121;-66
2023/03/07 10:48:46;;;;;;;44.95;38.15;;;4.50;99.90;;;;;;5041079;28;20037;-67
2023/03/07 10:51:15;;;;;;;44.00;36.15;;;4.70;99.90;;;;;;5031452;28;20042;-64
2023/03/07 10:53:41;;;;;;;42.47;34.75;;;4.80;99.90;;;;;;5031461;28;20033;-65
2023/03/07 10:56:12;;;;;;;55.92;49.83;;;5.00;99.90;;;;;;5030628;28;20056;-65
2023/03/07 10:58:38;;;;;;;40.58;35.38;;;5.10;99.90;;;;;;5030701;28;20033;-65
2023/03/07 11:01:07;;;;;;;41.92;35.15;;;5.10;99.90;;;;;;5030744;28;20481;-65
2023/03/07 11:04:00;;;;;;;52.83;47.05;;;5.20;99.90;;;;;;5030751;28;20172;-65
2023/03/07 11:06:33;;;;;;;56.15;47.58;;;5.30;99.90;;;;;;5031118;28;20029;-64
2023/03/07 11:09:18;;;;;;;;;;;5.50;99.90;;;;;;5031205;28;20025;-65
2023/03/07 11:11:58;;;;;;;46.47;38.83;;;5.40;99.90;;;;;;5030642;28;19912;-65
2023/03/07 11:14:26;;;;;;;40.58;35.65;;;5.50;99.90;;;;;;5030707;28;20045;-65
2023/03/07 11:17:00;;;;;;;35.22;30.02;;;5.70;99.90;;;;;;5023267;28;20034;-64
2023/03/07 11:19:36;;;;;;;39.95;35.30;;;5.70;99.90;;;;;;5013330;28;20079;-64
2023/03/07 11:22:21;;;;;;;38.83;34.05;;;5.90;99.90;;;;;;5013018;28;20026;-65
2023/03/07 11:24:52;;;;;;;35.58;31.73;;;6.00;99.90;;;;;;5012788;28;20030;-64
2023/03/07 11:27:35;;;;;;;39.35;34.75;;;6.20;99.90;;;;;;5012960;28;20022;-65
2023/03/07 11:30:27;;;;;;;38.60;34.22;;;5.80;99.90;;;;;;5012293;28;20387;-66
2023/03/07 11:33:23;;;;;;;43.17;38.28;;;5.70;99.90;;;;;;5012629;28;20046;-67
2023/03/07 11:36:14;;;;;;;38.65;33.65;;;5.60;99.90;;;;;;5013370;28;20453;-64
2023/03/07 11:39:00;;;;;;;37.80;33.90;;;6.00;99.90;;;;;;5012608;28;20140;-64
2023/03/07 11:41:40;;;;;;;38.22;33.65;;;5.90;99.90;;;;;;5012848;28;20068;-63
2023/03/07 11:44:51;;;;;;;40.25;35.90;;;5.70;99.90;;;;;;5024318;28;20037;-64
2023/03/07 11:47:48;;;;;;;48.17;42.35;;;5.80;99.90;;;;;;5029258;28;20487;-62
2023/03/07 11:50:20;;;;;;;40.10;35.63;;;5.90;99.90;;;;;;5010414;28;20041;-65
2023/03/07 11:53:15;;;;;;;37.58;33.47;;;6.00;99.90;;;;;;5010377;28;20391;-66
2023/03/07 11:55:46;;;;;;;38.55;34.25;;;6.00;99.90;;;;;;5010578;28;20411;-65
2023/03/07 11:58:21;;;;;;;37.17;33.17;;;5.80;99.90;;;;;;5010661;28;20030;-66
2023/03/07 12:00:58;;;;;;;41.30;36.92;;;6.00;99.90;;;;;;5009754;28;20030;-66
2023/03/07 12:03:45;;;;;;;38.78;34.20;;;6.20;99.90;;;;;;5010382;28;20460;-67
2023/03/07 12:06:31;;;;;;;38.25;34.00;;;6.30;99.90;;;;;;5010578;28;20089;-68
2023/03/07 12:08:57;;;;;;;40.78;34.60;;;6.20;99.90;;;;;;5010055;28;20094;-66
2023/03/07 12:11:43;;;;;;;39.05;34.40;;;6.30;99.90;;;;;;5010292;28;20034;-66
2023/03/07 12:14:28;;;;;;;36.33;32.53;;;6.40;99.90;;;;;;5010512;28;20200;-66
2023/03/07 12:17:05;;;;;;;41.22;35.80;;;6.40;99.90;;;;;;5010249;28;20030;-66
2023/03/07 12:19:36;;;;;;;40.35;35.92;;;6.50;99.90;;;;;;5010206;28;20029;-64
2023/03/07 12:22:36;;;;;;;40.80;36.35;;;6.60;99.90;;;;;;5010675;28;20040;-65
2023/03/07 12:25:25;;;;;;;36.67;32.58;;;6.60;99.90;;;;;;5012387;28;20087;-64
2023/03/07 12:28:10;;;;;;;39.80;35.63;;;7.00;99.90;;;;;;5012809;28;20022;-65
2023/03/07 12:30:56;;;;;;;34.35;30.88;;;6.90;99.90;;;;;;5012485;28;20482;-64
2023/03/07 12:33:38;;;;;;;35.92;32.05;;;7.10;99.90;;;;;;5011550;28;20034;-66
2023/03/07 12:36:15;;;;;;;36.03;32.10;;;7.00;99.90;;;;;;5012677;28;20030;-66
2023/03/07 12:38:53;;;;;;;38.85;34.60;;;7.20;99.90;;;;;;5012251;28;20032;-66
2023/03/07 12:41:39;;;;;;;39.20;34.97;;;7.60;99.90;;;;;;5011815;28;20101;-63
2023/03/07 12:44:18;;;;;;;35.92;32.13;;;7.50;99.90;;;;;;5022977;28;20041;-66
2023/03/07 12:46:55;;;;;;;38.08;34.22;;;8.00;99.90;;;;;;5030825;28;20367;-66
2023/03/07 12:49:46;;;;;;;36.67;32.88;;;8.30;99.90;;;;;;5031108;28;20021;-66